Weather History for Gilze-Rijen, Netherlands

Change the Weather History Date:

Monday, December 2, 2013

  Actual Average Record
Temperature  
Mean Temperature 40 °F -  
Max Temperature 48 °F 41 °F 55 °F (2000)
Min Temperature 32 °F 32 °F 19 °F (2010)
Degree Days  
Heating Degree Days 25    
Moisture  
Dew Point 36 °F    
Average Humidity 92    
Maximum Humidity 100    
Minimum Humidity 66    
Precipitation  
Precipitation 0.00 in - - ()
Sea Level Pressure  
Sea Level Pressure 30.50 in    
Wind  
Wind Speed 4 mph ()    
Max Wind Speed 10 mph    
Max Gust Speed -    
Visibility 5.2 miles    
Events      
Averages and records for this station are not official NWS values.
T = Trace of Precipitation, MM = Missing Value Source: Averaged Metar Reports

Daily Weather History Graph

Daily Weather History Graph

Search for Another Location

Airport:

Trip Planner

Search our weather history database for the weather conditions in past years. The results will help you decide how hot, cold, wet, or windy it might be!

Date:

Astronomy

Dec. 02, 2013 Rise Set
Actual Time 8:25 AM CET 4:33 PM CET
Civil Twilight 7:46 AM CET 5:13 PM CET
Nautical Twilight 7:03 AM CET 5:55 PM CET
Astronomical Twilight 6:23 AM CET 6:35 PM CET
Moon 7:27 AM CET (12/2) 4:26 PM CET (12/2)
Length of Visible Light 9h 26m
Length of Day
8h 08m
Waning Crescent, 0% of the Moon is Illuminated
Dec 2
Waning Crescent
Dec 3
New
Dec 9
First Quarter
Dec 17
Full
Dec 25
Last Quarter

Hourly Weather History & Observations

Time (CET) Temp. Windchill Dew Point Humidity Pressure Visibility Wind Dir Wind Speed Gust Speed Precip Events Conditions
12:25 AM 44.6 °F 42.2 °F 42.8 °F 93% 30.51 in 6.2 mi North 4.6 mph - N/A   Overcast
12:55 AM 44.6 °F 43.1 °F 41.0 °F 87% 30.51 in 6.2 mi North 3.5 mph - N/A   Overcast
1:25 AM 42.8 °F 41.1 °F 41.0 °F 93% 30.51 in 6.2 mi North 3.5 mph - N/A   Overcast
1:55 AM 44.6 °F 41.4 °F 41.0 °F 87% 30.51 in 6.2 mi North 5.8 mph - N/A   Overcast
2:25 AM 44.6 °F 40.7 °F 41.0 °F 87% 30.51 in 6.2 mi North 6.9 mph - N/A   Overcast
2:55 AM 44.6 °F 40.7 °F 41.0 °F 87% 30.51 in 6.2 mi North 6.9 mph - N/A   Overcast
3:25 AM 41.0 °F 37.1 °F 39.2 °F 93% 30.51 in 6.2 mi NNE 5.8 mph - N/A   Mostly Cloudy
3:55 AM 39.2 °F 35.0 °F 37.4 °F 93% 30.54 in 6.2 mi North 5.8 mph - N/A   Mostly Cloudy
4:25 AM 39.2 °F 35.9 °F 37.4 °F 93% 30.51 in 6.2 mi NNE 4.6 mph - N/A   Overcast
4:55 AM 41.0 °F 39.0 °F 39.2 °F 93% 30.51 in 6.2 mi NNE 3.5 mph - N/A   Overcast
5:25 AM 39.2 °F 35.9 °F 37.4 °F 93% 30.51 in 5.6 mi NNE 4.6 mph - N/A   Mostly Cloudy
5:55 AM 39.2 °F 35.9 °F 37.4 °F 93% 30.51 in 5.0 mi NNE 4.6 mph - N/A   Overcast
6:25 AM 39.2 °F 35.9 °F 37.4 °F 93% 30.51 in 5.0 mi NNE 4.6 mph - N/A   Overcast
6:49 AM 39.2 °F 37.0 °F 37.4 °F 93% 30.51 in 4.3 mi North 3.5 mph - N/A   Overcast
6:55 AM 39.2 °F 37.0 °F 37.4 °F 93% 30.51 in 4.3 mi North 3.5 mph - N/A   Overcast
7:10 AM 37.4 °F 33.8 °F 35.6 °F 93% 30.54 in 5.0 mi North 4.6 mph - N/A   Overcast
7:16 AM 37.4 °F 33.8 °F 37.4 °F 100% 30.54 in 4.3 mi North 4.6 mph - N/A   Overcast
7:25 AM 37.4 °F 33.8 °F 37.4 °F 100% 30.54 in 4.3 mi North 4.6 mph - N/A   Overcast
7:34 AM 37.4 °F 32.8 °F 37.4 °F 100% 30.54 in 5.0 mi NNE 5.8 mph - N/A   Overcast
7:47 AM 35.6 °F 30.7 °F 35.6 °F 100% 30.54 in 5.0 mi NNE 5.8 mph - N/A   Mostly Cloudy
7:55 AM 37.4 °F 32.8 °F 37.4 °F 100% 30.54 in 5.0 mi North 5.8 mph - N/A   Mostly Cloudy
7:59 AM 37.4 °F 32.1 °F 37.4 °F 100% 30.54 in 4.3 mi North 6.9 mph - N/A   Mostly Cloudy
8:05 AM 35.6 °F 30.7 °F 35.6 °F 100% 30.54 in 5.0 mi NNE 5.8 mph - N/A   Mostly Cloudy
8:18 AM 37.4 °F - 37.4 °F 100% 30.54 in 5.0 mi NNE 2.3 mph - N/A   Overcast
8:25 AM 37.4 °F 34.9 °F 37.4 °F 100% 30.54 in 4.3 mi NNE 3.5 mph - N/A   Overcast
8:37 AM 35.6 °F 31.7 °F 35.6 °F 100% 30.54 in 4.3 mi NNE 4.6 mph - N/A   Overcast
8:55 AM 37.4 °F 34.9 °F 37.4 °F 100% 30.54 in 5.0 mi NE 3.5 mph - N/A   Overcast
9:05 AM 37.4 °F - 37.4 °F 100% 30.57 in 3.7 mi NE 1.2 mph - N/A   Overcast
9:18 AM 37.4 °F 34.9 °F 37.4 °F 100% 30.57 in 5.0 mi NNE 3.5 mph - N/A   Mostly Cloudy
9:25 AM 37.4 °F 34.9 °F 37.4 °F 100% 30.57 in 4.3 mi NNE 3.5 mph - N/A   Mostly Cloudy
9:34 AM 37.4 °F 34.9 °F 37.4 °F 100% 30.57 in 5.0 mi NE 3.5 mph - N/A   Overcast
9:47 AM 39.2 °F 37.0 °F 37.4 °F 93% 30.57 in 5.6 mi NE 3.5 mph - N/A   Mostly Cloudy
9:55 AM 39.2 °F 37.0 °F 39.2 °F 100% 30.57 in 5.6 mi NNE 3.5 mph - N/A   Mostly Cloudy
10:25 AM 41.0 °F 39.0 °F 39.2 °F 93% 30.57 in 6.2 mi NE 3.5 mph - N/A   Partly Cloudy
10:55 AM 42.8 °F 40.1 °F 39.2 °F 87% 30.57 in 6.2 mi NE 4.6 mph - N/A   Unknown
11:25 AM 44.6 °F 40.7 °F 39.2 °F 81% 30.57 in 6.2 mi ENE 6.9 mph - N/A   Unknown
11:55 AM 46.4 °F 42.4 °F 37.4 °F 71% 30.54 in 6.2 mi ENE 8.1 mph - N/A   Unknown
12:25 PM 46.4 °F 42.4 °F 37.4 °F 71% 30.54 in 6.2 mi East 8.1 mph - N/A   Unknown
12:55 PM 46.4 °F 41.9 °F 37.4 °F 71% 30.51 in 6.2 mi East 9.2 mph - N/A   Partly Cloudy
1:25 PM 48.2 °F - 37.4 °F 66% 30.51 in 6.2 mi East 8.1 mph - N/A   Partly Cloudy
1:55 PM 48.2 °F - 37.4 °F 66% 30.51 in 6.2 mi East 8.1 mph - N/A   Partly Cloudy
2:25 PM 46.4 °F 41.5 °F 35.6 °F 66% 30.51 in 6.2 mi East 10.4 mph - N/A   Partly Cloudy
2:55 PM 46.4 °F 41.5 °F 35.6 °F 66% 30.48 in 6.2 mi ENE 10.4 mph - N/A   Partly Cloudy
3:25 PM 44.6 °F 40.2 °F 37.4 °F 76% 30.48 in 6.2 mi East 8.1 mph - N/A   Partly Cloudy
3:55 PM 44.6 °F 40.2 °F 37.4 °F 76% 30.48 in 6.2 mi East 8.1 mph - N/A   Partly Cloudy
4:16 PM 42.8 °F 38.0 °F 35.6 °F 76% 30.48 in 6.2 mi ENE 8.1 mph - N/A   Unknown
4:25 PM 42.8 °F 38.0 °F 35.6 °F 76% 30.48 in 6.2 mi ENE 8.1 mph - N/A   Unknown
4:55 PM 41.0 °F 37.1 °F 35.6 °F 81% 30.48 in 6.2 mi ENE 5.8 mph - N/A   Unknown
5:25 PM 39.2 °F 34.2 °F 35.6 °F 87% 30.48 in 6.2 mi ENE 6.9 mph - N/A   Partly Cloudy
5:49 PM 39.2 °F 35.0 °F 33.8 °F 81% 30.48 in 6.2 mi ENE 5.8 mph - N/A   Unknown
5:55 PM 37.4 °F 32.8 °F 33.8 °F 87% 30.48 in 6.2 mi ENE 5.8 mph - N/A   Unknown
6:25 PM 39.2 °F 35.0 °F 35.6 °F 87% 30.48 in 6.2 mi ENE 5.8 mph - N/A   Unknown
6:55 PM 37.4 °F 33.8 °F 33.8 °F 87% 30.48 in 6.2 mi ENE 4.6 mph - N/A   Partly Cloudy
7:25 PM 33.8 °F 29.6 °F 32.0 °F 93% 30.48 in 5.0 mi NE 4.6 mph - N/A   Mist
7:32 PM 35.6 °F 31.7 °F 33.8 °F 93% 30.48 in 4.3 mi NE 4.6 mph - N/A   Mist
7:38 PM 33.8 °F 29.6 °F 32.0 °F 93% 30.48 in 5.0 mi NNE 4.6 mph - N/A   Mist
7:51 PM 35.6 °F - 33.8 °F 93% 30.48 in 5.0 mi NE 2.3 mph - N/A   Mostly Cloudy
7:55 PM 33.8 °F - 33.8 °F 100% 30.48 in 4.3 mi NNE 2.3 mph - N/A   Mostly Cloudy
7:59 PM 35.6 °F 32.8 °F 33.8 °F 93% 30.48 in 5.0 mi NNE 3.5 mph - N/A   Scattered Clouds
8:05 PM 35.6 °F 32.8 °F 33.8 °F 93% 30.48 in 4.3 mi NNE 3.5 mph - N/A   Mist
8:09 PM 35.6 °F 32.8 °F 33.8 °F 93% 30.48 in 5.0 mi NNE 3.5 mph - N/A   Mist
8:12 PM 35.6 °F 32.8 °F 33.8 °F 93% 30.48 in 4.3 mi NNE 3.5 mph - N/A   Mist
8:16 PM 35.6 °F 32.8 °F 33.8 °F 93% 30.48 in 5.0 mi NNE 3.5 mph - N/A   Mist
8:25 PM 35.6 °F 32.8 °F 33.8 °F 93% 30.48 in 4.3 mi NNE 3.5 mph - N/A   Partly Cloudy
8:37 PM 35.6 °F 31.7 °F 33.8 °F 93% 30.48 in 5.0 mi North 4.6 mph - N/A   Partly Cloudy
8:48 PM 33.8 °F 30.8 °F 33.8 °F 100% 30.48 in 4.3 mi NNE 3.5 mph - N/A   Mist
8:55 PM 33.8 °F 30.8 °F 33.8 °F 100% 30.48 in 4.3 mi NNE 3.5 mph - N/A   Mist
9:25 PM 33.8 °F 30.8 °F 33.8 °F 100% 30.48 in 4.3 mi NNE 3.5 mph - N/A   Partly Cloudy
9:55 PM 33.8 °F - 33.8 °F 100% 30.48 in 3.7 mi NE 2.3 mph - N/A   Mist
10:18 PM 33.8 °F - 33.8 °F 100% 30.45 in - NE 2.3 mph - N/A   Partly Cloudy
10:25 PM 33.8 °F - 33.8 °F 100% 30.45 in 3.1 mi NNE 2.3 mph - N/A   Mostly Cloudy
10:37 PM 33.8 °F 30.8 °F 33.8 °F 100% 30.45 in - ENE 3.5 mph - N/A   Mostly Cloudy
10:43 PM 33.8 °F 30.8 °F 33.8 °F 100% 30.45 in 3.1 mi ENE 3.5 mph - N/A   Mostly Cloudy
10:55 PM 33.8 °F - 33.8 °F 100% 30.45 in 3.1 mi ENE 2.3 mph - N/A   Scattered Clouds
11:12 PM 33.8 °F - 33.8 °F 100% 30.45 in - ENE 1.2 mph - N/A   Partly Cloudy
11:25 PM 33.8 °F - 33.8 °F 100% 30.45 in 2.5 mi ENE 1.2 mph - N/A   Partly Cloudy
11:29 PM 33.8 °F - 33.8 °F 100% 30.45 in - NE 1.2 mph - N/A   Partly Cloudy
11:37 PM 32.0 °F - 32.0 °F 100% 30.45 in - NE 1.2 mph - N/A   Partly Cloudy
11:41 PM 33.8 °F - 32.0 °F 93% 30.45 in - ENE 1.2 mph - N/A   Partly Cloudy
11:55 PM 33.8 °F - 33.8 °F 100% 30.45 in - NNE 1.2 mph - N/A   Mostly Cloudy